PINE FLAT DAM (PNF)

Elevation: 970' · KINGS R basin · Operator: US Army Corps of Engineers

Provisional data, subject to change.
Query executed Saturday at 9:14:43   clock

Select a sensor type for a plot of data.
Note: Reservoir Flows are daily averages.

Earlier

Date RES ELE    STORAGE    RES CHG    TOC STO    ABV TOC    OUTFLOW    INFLOW    FNF    PPT INC    PPTINC4    TEMP MN    TEMP MX    WINDLEN    EVP PAN   
 FEET   AF   AF   AF   AF   CFS   CFS   CFS   INCHES   INCHES   DEG F   DEG F   MILES   INCHES  
03/19/2015 748.99 174400 912 875909 -701509 169 640 733 0.00 0.00 -- -- 44 0.17
03/20/2015 749.33 175197 797 878864 -703667 175 587 750 0.00 0.00 -- -- 38 0.15
03/21/2015 749.65 175949 752 881818 -705869 175 565 699 0.00 0.00 -- -- 37 0.16
03/22/2015 749.95 176655 706 884773 -708118 177 543 657 0.00 0.00 -- -- 41 0.15
03/23/2015 750.26 177387 732 887727 -710340 178 558 681 0.00 0.00 -- -- 48 0.16
03/24/2015 750.54 178049 662 890682 -712633 181 523 673 0.00 0.00 -- -- 38 0.13
03/25/2015 750.80 178665 616 893636 -714971 182 504 659 0.00 0.00 -- -- 38 0.17
03/26/2015 751.12 179424 759 896591 -717167 180 576 757 0.00 0.00 -- -- 46 0.20
03/27/2015 751.49 180305 881 899545 -719240 180 638 886 0.01 0.00 -- -- 46 0.21
03/28/2015 751.96 e 181427 e -- -- -- -- -- 1021 0.00 0.00 -- -- -- --
03/29/2015 752.46 182624 -- 905454 -- 180 797 1019 0.00 0.00 -- -- 44 0.20
03/30/2015 752.95 183801 -- 908409 -- 182 789 1052 0.00 0.00 -- -- 47 0.20
03/31/2015 753.44 184983 -- 911364 -- 185 794 1041 0.00 0.00 -- -- 53 0.19
04/01/2015 753.94 186193 -- 914318 -728125 174 795 993 0.00 0.00 -- -- 47 0.17
04/02/2015 754.39 187285 1092 917273 -729988 169 731 873 0.00 0.00 -- -- 40 0.17
04/03/2015 754.73 188112 827 920227 -732115 165 596 718 0.00 0.00 -- -- 47 0.19
04/04/2015 755.02 188820 708 923182 -734362 165 536 655 0.00 0.00 -- -- 52 0.20
04/05/2015 755.27 189431 611 926136 -736705 165 485 585 0.00 0.00 -- -- 48 0.17
04/06/2015 755.52 190043 612 929091 -739048 164 484 563 0.00 0.00 -- -- 47 0.17
04/07/2015 755.83 190803 760 932045 -741242 145 533 629 0.30 0.00 -- -- 37 0.06
04/08/2015 756.09 191442 639 935000 -743558 145 479 596 0.00 0.30 -- -- 46 0.16
04/09/2015 756.37 192131 689 937954 -745824 146 503 629 0.00 0.00 -- -- 42 0.14
04/10/2015 756.65 192822 691 940909 -748087 150 512 633 0.00 0.00 -- -- 45 0.19
04/11/2015 756.96 193588 766 943864 -750276 150 551 670 0.00 0.00 -- -- 50 0.21
04/12/2015 757.25 194306 718 946818 -752512 150 527 719 0.00 0.00 -- -- 41 0.21
04/13/2015 757.53 195001 -- 949773 -- 162 530 598 0.00 0.00 -- -- 58 0.25
04/14/2015 757.86 195821 -- 952727 -- 165 593 744 0.00 0.00 -- -- 63 0.21
04/15/2015 758.18 196619 798 955682 -759063 167 583 660 0.00 0.00 -- -- 46 0.20
04/16/2015 758.47 197343 724 958636 -761293 170 551 626 0.00 0.00 -- -- 52 0.22
04/17/2015 758.74 198018 675 961591 -763573 166 523 598 0.00 0.00 -- -- 52 0.23
04/18/2015 -- -- -- -- -- -- -- -- -- 0.00 -- -- -- --

Later | Latest

Warning! This data is preliminary and subject to revision.

Show PNF Map | Plot PNF Data | 1 Month PNF Data | Real-Time PNF Data | PNF Info